N23SM MKKJ-MKJP
Flight info
| Callsign | N23SM |
|---|---|
| Flight time | N/A |
| Altitude | 9000 |
| Route | MKKJ |
| Aircraft | PA28/L-SDFGHIRWXY/LB1 |
Departure
| Time | 2026-05-06 22:13 |
|---|---|
| Airport | Ken Jones Airport (MKKJ) |
Arrival
| Time | N/A |
|---|---|
| Airport | Norman Manley International Airport (MKJP) |
| Time | Latitude | Longitude | Altitude | Speed | Heading |
|---|---|---|---|---|---|
| 2026-05-06 21:56 | 18.19861 | -76.53079 | -36 ft | 0 kts | 54° |
| 2026-05-06 22:08 | 18.19898 | -76.53097 | -36 ft | 9 kts | 291° |
| 2026-05-06 22:09 | 18.19898 | -76.53159 | -36 ft | 8 kts | 267° |
| 2026-05-06 22:09 | 18.19893 | -76.53243 | -36 ft | 14 kts | 268° |
| 2026-05-06 22:09 | 18.19885 | -76.53374 | -34 ft | 18 kts | 266° |
| 2026-05-06 22:09 | 18.19877 | -76.53487 | -32 ft | 14 kts | 265° |
| 2026-05-06 22:10 | 18.19871 | -76.53580 | -30 ft | 12 kts | 267° |
| 2026-05-06 22:10 | 18.19867 | -76.53666 | -33 ft | 12 kts | 267° |
| 2026-05-06 22:10 | 18.19864 | -76.53750 | -35 ft | 11 kts | 267° |
| 2026-05-06 22:10 | 18.19863 | -76.53767 | -35 ft | 11 kts | 267° |
| 2026-05-06 22:11 | 18.19861 | -76.53800 | -35 ft | 10 kts | 267° |
| 2026-05-06 22:11 | 18.19858 | -76.53865 | -35 ft | 8 kts | 264° |
| 2026-05-06 22:11 | 18.19848 | -76.53919 | -35 ft | 7 kts | 259° |
| 2026-05-06 22:11 | 18.19864 | -76.53946 | -35 ft | 2 kts | 47° |
| 2026-05-06 22:12 | 18.19858 | -76.53916 | -35 ft | 6 kts | 99° |
| 2026-05-06 22:12 | 18.19858 | -76.53912 | -35 ft | 0 kts | 87° |
| 2026-05-06 22:12 | 18.19862 | -76.53853 | -35 ft | 34 kts | 84° |
| 2026-05-06 22:12 | 18.19886 | -76.53439 | -30 ft | 74 kts | 92° |
| 2026-05-06 22:13 | 18.19951 | -76.52839 | 50 ft | 87 kts | 83° |
| 2026-05-06 22:13 | 18.20070 | -76.52181 | 250 ft | 103 kts | 70° |
| 2026-05-06 22:13 | 18.20720 | -76.52022 | 569 ft | 125 kts | 334° |
| 2026-05-06 22:13 | 18.21065 | -76.52796 | 1061 ft | 122 kts | 266° |
| 2026-05-06 22:14 | 18.20833 | -76.53664 | 1360 ft | 123 kts | 243° |
| 2026-05-06 22:14 | 18.20360 | -76.54436 | 1648 ft | 126 kts | 231° |
| 2026-05-06 22:14 | 18.19771 | -76.55181 | 1817 ft | 138 kts | 217° |
| 2026-05-06 22:14 | 18.19039 | -76.55808 | 2173 ft | 130 kts | 205° |
| 2026-05-06 22:15 | 18.18328 | -76.56366 | 2515 ft | 126 kts | 207° |
| 2026-05-06 22:15 | 18.17577 | -76.56837 | 2743 ft | 129 kts | 202° |
| 2026-05-06 22:15 | 18.16776 | -76.57347 | 2912 ft | 139 kts | 206° |
| 2026-05-06 22:15 | 18.15945 | -76.57892 | 3122 ft | 141 kts | 207° |
| 2026-05-06 22:16 | 18.15114 | -76.58446 | 3253 ft | 142 kts | 212° |
| 2026-05-06 22:16 | 18.14588 | -76.59250 | 3741 ft | 126 kts | 240° |
| 2026-05-06 22:16 | 18.14142 | -76.59979 | 4144 ft | 114 kts | 233° |
| 2026-05-06 22:16 | 18.13614 | -76.60540 | 4434 ft | 105 kts | 195° |
| 2026-05-06 22:17 | 18.12966 | -76.60858 | 4735 ft | 107 kts | 214° |
| 2026-05-06 22:17 | 18.12436 | -76.61408 | 4930 ft | 106 kts | 217° |
| 2026-05-06 22:17 | 18.11901 | -76.61931 | 5202 ft | 106 kts | 218° |
| 2026-05-06 22:17 | 18.11343 | -76.62476 | 5548 ft | 112 kts | 220° |
| 2026-05-06 22:18 | 18.10788 | -76.63047 | 5974 ft | 111 kts | 221° |
| 2026-05-06 22:18 | 18.10229 | -76.63608 | 6373 ft | 111 kts | 222° |
| 2026-05-06 22:18 | 18.09672 | -76.64173 | 6753 ft | 111 kts | 220° |
| 2026-05-06 22:18 | 18.09111 | -76.64735 | 7109 ft | 112 kts | 219° |
| 2026-05-06 22:19 | 18.08548 | -76.65303 | 7432 ft | 112 kts | 221° |
| 2026-05-06 22:19 | 18.07981 | -76.65856 | 7721 ft | 111 kts | 219° |
| 2026-05-06 22:19 | 18.07431 | -76.66428 | 8040 ft | 111 kts | 222° |
| 2026-05-06 22:19 | 18.06831 | -76.67001 | 8193 ft | 130 kts | 214° |
| 2026-05-06 22:20 | 18.06046 | -76.67627 | 8273 ft | 151 kts | 213° |
| 2026-05-06 22:20 | 18.05251 | -76.68419 | 8426 ft | 163 kts | 223° |
| 2026-05-06 22:20 | 18.04485 | -76.69317 | 8591 ft | 167 kts | 223° |
| 2026-05-06 22:20 | 18.03664 | -76.70171 | 8724 ft | 168 kts | 221° |
| 2026-05-06 22:21 | 18.02852 | -76.71053 | 8862 ft | 167 kts | 222° |
| 2026-05-06 22:21 | 18.02024 | -76.71897 | 9003 ft | 165 kts | 220° |
| 2026-05-06 22:21 | 18.01185 | -76.72724 | 9114 ft | 167 kts | 219° |
| 2026-05-06 22:21 | 18.00284 | -76.73530 | 9135 ft | 171 kts | 214° |
| 2026-05-06 22:22 | 17.99367 | -76.74320 | 9227 ft | 171 kts | 214° |
| 2026-05-06 22:22 | 17.98543 | -76.75231 | 9287 ft | 174 kts | 227° |
| 2026-05-06 22:22 | 17.97811 | -76.76252 | 9333 ft | 175 kts | 228° |
| 2026-05-06 22:22 | 17.97069 | -76.77258 | 9417 ft | 174 kts | 228° |
| 2026-05-06 22:23 | 17.96325 | -76.78254 | 9495 ft | 173 kts | 227° |
| 2026-05-06 22:23 | 17.95568 | -76.79226 | 9555 ft | 171 kts | 224° |
| 2026-05-06 22:23 | 17.94731 | -76.80114 | 9615 ft | 170 kts | 221° |
| 2026-05-06 22:23 | 17.93910 | -76.81012 | 9680 ft | 170 kts | 221° |